createdAt,value
2023-04-02T00:00:12.003Z,11.80
2023-04-02T00:05:31.315Z,10.90
2023-04-02T00:08:03.438Z,10.80
2023-04-02T00:10:39.517Z,10.80
2023-04-02T00:13:12.213Z,12.20
2023-04-02T00:15:46.846Z,11.10
2023-04-02T00:18:21.088Z,10.40
2023-04-02T00:20:56.597Z,10.70
2023-04-02T00:23:25.496Z,11.70
2023-04-02T00:25:53.845Z,11.80
2023-04-02T00:28:23.422Z,11.70
2023-04-02T00:30:53.328Z,8.20
2023-04-02T00:33:23.334Z,10.50
2023-04-02T00:38:31.982Z,11.00
2023-04-02T00:41:05.381Z,11.80
2023-04-02T00:43:37.597Z,11.10
2023-04-02T00:46:11.170Z,10.30
2023-04-02T00:49:22.123Z,10.10
2023-04-02T00:51:53.572Z,10.80
2023-04-02T00:54:23.196Z,11.20
2023-04-02T00:56:54.669Z,10.40
2023-04-02T00:59:35.977Z,9.80
2023-04-02T01:02:15.211Z,9.80
2023-04-02T01:05:20.818Z,10.70
2023-04-02T01:07:59.850Z,11.00
2023-04-02T01:10:40.418Z,10.30
2023-04-02T01:13:53.755Z,9.80
2023-04-02T01:16:31.238Z,10.00
2023-04-02T01:19:21.544Z,10.70
2023-04-02T01:24:38.689Z,10.30
2023-04-02T01:27:19.151Z,9.40
2023-04-02T01:29:57.981Z,10.30
2023-04-02T01:32:28.891Z,10.60
2023-04-02T01:34:58.658Z,11.30
2023-04-02T01:37:45.137Z,9.30
2023-04-02T01:40:44.960Z,9.90
2023-04-02T01:43:37.720Z,11.00
2023-04-02T01:46:24.162Z,11.10
2023-04-02T01:48:57.178Z,10.30
2023-04-02T01:51:28.374Z,10.50
2023-04-02T01:53:57.146Z,10.30
2023-04-02T01:56:26.141Z,10.20
2023-04-02T01:58:55.137Z,10.90
2023-04-02T02:01:27.922Z,10.70
2023-04-02T02:03:56.919Z,11.00
2023-04-02T02:06:25.549Z,10.10
2023-04-02T02:09:03.955Z,10.70
2023-04-02T02:11:33.330Z,11.10
2023-04-02T02:14:05.409Z,10.20
2023-04-02T02:16:42.275Z,11.30
2023-04-02T02:19:22.131Z,12.20
2023-04-02T02:21:52.716Z,12.30
2023-04-02T02:24:32.215Z,10.80
2023-04-02T02:27:27.229Z,10.90
2023-04-02T02:30:14.856Z,11.00
2023-04-02T02:32:57.810Z,11.80
2023-04-02T02:35:45.877Z,10.40
2023-04-02T02:38:30.180Z,10.90
2023-04-02T02:41:24.931Z,11.90
2023-04-02T02:44:16.914Z,12.20
2023-04-02T02:47:12.122Z,11.20
2023-04-02T02:49:42.657Z,11.00
2023-04-02T02:52:22.707Z,10.90
2023-04-02T02:55:01.432Z,11.40
2023-04-02T02:57:40.778Z,9.10
2023-04-02T03:00:11.900Z,11.00
2023-04-02T03:02:41.663Z,10.90
2023-04-02T03:05:24.165Z,11.30
2023-04-02T03:07:55.800Z,11.80
2023-04-02T03:10:37.189Z,11.80
2023-04-02T03:13:14.984Z,10.60
2023-04-02T03:16:09.910Z,11.30
2023-04-02T03:18:44.810Z,11.00
2023-04-02T03:21:16.707Z,12.40
2023-04-02T03:23:54.704Z,11.60
2023-04-02T03:26:38.955Z,9.50
2023-04-02T03:29:27.915Z,10.60
2023-04-02T03:31:58.054Z,11.50
2023-04-02T03:34:41.584Z,11.90
2023-04-02T03:37:21.518Z,10.40
2023-04-02T03:39:52.271Z,10.80
2023-04-02T03:42:27.273Z,11.50
2023-04-02T03:45:06.345Z,11.20
2023-04-02T03:47:42.742Z,10.80
2023-04-02T03:50:17.352Z,9.50
2023-04-02T03:52:46.540Z,10.50
2023-04-02T03:55:18.343Z,11.00
2023-04-02T03:57:59.287Z,10.50
2023-04-02T04:00:41.584Z,10.80
2023-04-02T04:03:35.702Z,10.00
2023-04-02T04:06:23.717Z,9.80
2023-04-02T04:08:57.323Z,10.60
2023-04-02T04:11:36.962Z,9.90
2023-04-02T04:14:07.600Z,8.80
2023-04-02T04:16:49.621Z,9.00
2023-04-02T04:19:45.841Z,9.00
2023-04-02T04:22:30.570Z,10.30
2023-04-02T04:25:07.105Z,9.30
2023-04-02T04:27:43.021Z,8.70
2023-04-02T04:30:42.750Z,8.90
2023-04-02T04:33:23.369Z,9.40
2023-04-02T04:35:59.748Z,9.40
2023-04-02T04:38:39.628Z,8.50
2023-04-02T04:41:13.704Z,8.70
2023-04-02T04:43:42.960Z,8.90
2023-04-02T04:46:18.833Z,8.90
2023-04-02T04:48:52.521Z,9.40
2023-04-02T04:51:30.251Z,8.30
2023-04-02T04:54:00.772Z,8.40
2023-04-02T04:56:31.094Z,8.30
2023-04-02T04:59:16.666Z,8.90
2023-04-02T05:02:06.173Z,7.90
2023-04-02T05:04:42.069Z,7.70
2023-04-02T05:07:37.098Z,8.00
2023-04-02T05:10:09.672Z,8.70
2023-04-02T05:12:58.447Z,8.30
2023-04-02T05:15:49.756Z,7.00
2023-04-02T05:18:57.368Z,9.10
2023-04-02T05:21:44.184Z,7.80
2023-04-02T05:24:38.172Z,7.00
2023-04-02T05:27:18.839Z,7.90
2023-04-02T05:29:49.585Z,7.30
2023-04-02T05:32:24.547Z,7.60
2023-04-02T05:34:55.074Z,6.80
2023-04-02T05:37:26.497Z,6.40
2023-04-02T05:39:57.233Z,7.70
2023-04-02T05:42:28.462Z,7.90
2023-04-02T05:45:03.729Z,7.60
2023-04-02T05:47:34.623Z,7.40
2023-04-02T05:50:12.579Z,6.80
2023-04-02T05:52:59.288Z,7.20
2023-04-02T05:55:30.134Z,7.30
2023-04-02T05:58:34.487Z,7.00
2023-04-02T06:01:30.074Z,6.40
2023-04-02T06:04:31.329Z,7.00
2023-04-02T06:07:08.514Z,6.90
2023-04-02T06:09:57.589Z,6.30
2023-04-02T06:12:53.814Z,6.80
2023-04-02T06:15:23.373Z,7.00
2023-04-02T06:18:08.538Z,7.90
2023-04-02T06:20:38.721Z,6.20
2023-04-02T06:23:11.915Z,7.00
2023-04-02T06:25:50.232Z,6.50
2023-04-02T06:28:26.339Z,6.70
2023-04-02T06:30:59.479Z,6.30
2023-04-02T06:33:31.866Z,6.10
2023-04-02T06:36:00.469Z,6.80
2023-04-02T06:38:32.734Z,5.90
2023-04-02T06:41:15.763Z,5.50
2023-04-02T06:44:12.602Z,6.50
2023-04-02T06:46:53.077Z,6.90
2023-04-02T06:49:35.598Z,5.90
2023-04-02T06:52:10.744Z,5.80
2023-04-02T06:54:39.308Z,5.40
2023-04-02T06:57:10.692Z,6.70
2023-04-02T06:59:42.543Z,5.60
2023-04-02T07:02:27.124Z,5.40
2023-04-02T07:07:26.612Z,5.70
2023-04-02T07:09:55.141Z,5.70
2023-04-02T07:12:25.316Z,4.90
2023-04-02T07:14:55.949Z,5.30
2023-04-02T07:17:25.379Z,5.90
2023-04-02T07:19:54.454Z,4.60
2023-04-02T07:22:23.350Z,4.80
2023-04-02T07:24:55.826Z,4.50
2023-04-02T07:27:26.460Z,4.70
2023-04-02T07:29:56.073Z,5.40
2023-04-02T07:32:24.770Z,4.40
2023-04-02T07:34:53.144Z,4.70
2023-04-02T07:37:22.039Z,4.30
2023-04-02T07:39:51.150Z,4.70
2023-04-02T07:42:19.515Z,4.90
2023-04-02T07:44:47.901Z,4.10
2023-04-02T07:47:16.592Z,4.10
2023-04-02T07:49:45.588Z,3.80
2023-04-02T07:52:14.077Z,4.00
2023-04-02T07:54:42.464Z,3.90
2023-04-02T07:57:11.511Z,3.50
2023-04-02T07:59:41.778Z,3.90
2023-04-02T08:04:52.875Z,4.00
2023-04-02T08:07:22.283Z,3.70
2023-04-02T08:09:50.664Z,3.80
2023-04-02T08:12:24.473Z,4.30
2023-04-02T08:14:53.473Z,4.00
2023-04-02T08:17:22.263Z,4.00
2023-04-02T08:22:24.251Z,4.10
2023-04-02T08:24:52.734Z,4.50
2023-04-02T08:27:21.425Z,4.50
2023-04-02T08:29:50.019Z,3.60
2023-04-02T08:32:18.709Z,3.80
2023-04-02T08:34:47.390Z,4.20
2023-04-02T08:40:25.942Z,4.20
2023-04-02T08:43:06.117Z,4.10
2023-04-02T08:48:06.763Z,4.20
2023-04-02T08:50:37.804Z,4.70
2023-04-02T08:53:16.739Z,4.80
2023-04-02T08:56:18.023Z,3.70
2023-04-02T08:58:46.353Z,3.20
2023-04-02T09:01:35.180Z,4.50
2023-04-02T09:04:06.080Z,5.00
2023-04-02T09:06:38.957Z,3.70
2023-04-02T09:09:09.373Z,3.00
2023-04-02T09:11:53.528Z,4.50
2023-04-02T09:14:36.282Z,4.60
2023-04-02T09:17:04.847Z,4.10
2023-04-02T09:19:37.310Z,4.50
2023-04-02T09:22:07.126Z,4.60
2023-04-02T09:24:35.942Z,4.90
2023-04-02T09:27:19.393Z,4.60
2023-04-02T09:30:03.625Z,4.60
2023-04-02T09:32:53.663Z,4.00
2023-04-02T09:35:26.488Z,4.60
2023-04-02T09:38:07.478Z,4.70
2023-04-02T09:40:49.778Z,4.50
2023-04-02T09:43:23.380Z,4.20
2023-04-02T09:46:13.963Z,5.00
2023-04-02T09:48:50.167Z,4.40
2023-04-02T09:51:21.716Z,4.50
2023-04-02T09:53:51.518Z,5.00
2023-04-02T09:56:23.406Z,4.80
2023-04-02T09:59:15.864Z,4.80
2023-04-02T10:02:07.144Z,4.50
2023-04-02T10:04:44.650Z,4.70
2023-04-02T10:07:53.574Z,4.80
2023-04-02T10:10:34.334Z,4.70
2023-04-02T10:13:06.936Z,4.40
2023-04-02T10:15:43.594Z,4.30
2023-04-02T10:18:40.374Z,5.00
2023-04-02T10:21:10.577Z,4.70
2023-04-02T10:23:39.363Z,4.50
2023-04-02T10:26:27.614Z,4.60
2023-04-02T10:29:34.807Z,4.60
2023-04-02T10:32:09.929Z,4.50
2023-04-02T10:34:56.766Z,5.10
2023-04-02T10:37:47.677Z,5.00
2023-04-02T10:40:29.186Z,5.60
2023-04-02T10:43:36.366Z,5.40
2023-04-02T10:46:17.895Z,4.90
2023-04-02T10:49:20.368Z,5.30
2023-04-02T10:51:59.461Z,5.70
2023-04-02T10:54:33.891Z,4.50
2023-04-02T10:57:41.910Z,4.80
2023-04-02T11:00:11.633Z,5.40
2023-04-02T11:03:09.652Z,5.40
2023-04-02T11:05:48.834Z,4.60
2023-04-02T11:08:26.120Z,4.80
2023-04-02T11:11:16.836Z,4.70
2023-04-02T11:13:53.229Z,4.60
2023-04-02T11:16:22.002Z,4.50
2023-04-02T11:19:16.887Z,4.10
2023-04-02T11:22:14.455Z,3.80
2023-04-02T11:24:44.627Z,4.60
2023-04-02T11:27:15.726Z,3.90
2023-04-02T11:29:50.259Z,3.90
2023-04-02T11:32:22.434Z,3.80
2023-04-02T11:35:05.150Z,3.80
2023-04-02T11:37:43.556Z,3.60
2023-04-02T11:40:12.095Z,4.10
2023-04-02T11:42:41.755Z,4.40
2023-04-02T11:45:28.998Z,5.00
2023-04-02T11:48:08.595Z,3.80
2023-04-02T11:50:42.867Z,3.90
2023-04-02T11:53:11.845Z,4.20
2023-04-02T11:55:45.072Z,4.10
2023-04-02T11:58:41.588Z,3.50
2023-04-02T12:01:32.386Z,3.70
2023-04-02T12:04:11.724Z,3.70
2023-04-02T12:06:49.035Z,3.80
2023-04-02T12:09:24.258Z,3.50
2023-04-02T12:11:54.697Z,3.90
2023-04-02T12:14:46.620Z,3.80
2023-04-02T12:17:18.515Z,3.90
2023-04-02T12:19:50.548Z,4.20
2023-04-02T12:24:51.009Z,4.30
2023-04-02T12:27:27.848Z,3.70
2023-04-02T12:30:10.909Z,5.00
2023-04-02T12:32:39.923Z,8.40
2023-04-02T12:35:26.622Z,8.90
2023-04-02T12:37:54.998Z,9.40
2023-04-02T12:40:23.894Z,11.00
2023-04-02T12:42:53.913Z,11.60
2023-04-02T12:45:29.315Z,13.00
2023-04-02T12:47:58.595Z,13.30
2023-04-02T12:50:27.078Z,13.10
2023-04-02T12:53:01.579Z,14.00
2023-04-02T12:55:30.982Z,15.60
2023-04-02T12:58:00.206Z,12.90
2023-04-02T13:00:30.348Z,14.30
2023-04-02T13:03:18.246Z,15.10
2023-04-02T13:05:57.192Z,14.40
2023-04-02T13:08:30.947Z,13.00
2023-04-02T13:11:03.474Z,14.20
2023-04-02T13:13:36.288Z,14.30
2023-04-02T13:16:28.606Z,14.70
2023-04-02T13:19:21.246Z,13.90
2023-04-02T13:21:49.643Z,14.00
2023-04-02T13:24:23.027Z,16.60
2023-04-02T13:26:53.664Z,15.30
2023-04-02T13:29:33.009Z,16.10
2023-04-02T13:32:03.279Z,16.90
2023-04-02T13:34:32.326Z,16.80
2023-04-02T13:37:03.708Z,14.80
2023-04-02T13:39:32.883Z,14.80
2023-04-02T13:42:03.417Z,15.40
2023-04-02T13:44:34.443Z,15.80
2023-04-02T13:47:03.052Z,15.00
2023-04-02T13:49:31.958Z,13.60
2023-04-02T13:52:04.617Z,14.80
2023-04-02T13:54:56.553Z,14.10
2023-04-02T13:57:25.700Z,14.30
2023-04-02T13:59:54.444Z,11.60
2023-04-02T14:02:24.650Z,13.10
2023-04-02T14:04:57.583Z,14.20
2023-04-02T14:07:35.373Z,13.70
2023-04-02T14:10:19.308Z,12.70
2023-04-02T14:12:53.730Z,12.50
2023-04-02T14:15:40.857Z,13.50
2023-04-02T14:18:12.823Z,11.70
2023-04-02T14:21:00.143Z,10.30
2023-04-02T14:24:10.211Z,8.30
2023-04-02T14:30:03.802Z,5.70
2023-04-02T14:32:38.340Z,5.50
2023-04-02T14:35:19.096Z,6.00
2023-04-02T14:38:10.221Z,5.30
2023-04-02T14:40:54.994Z,4.80
2023-04-02T14:43:38.358Z,5.80
2023-04-02T14:46:07.624Z,7.20
2023-04-02T14:49:11.845Z,6.20
2023-04-02T14:51:51.950Z,6.90
2023-04-02T14:54:32.359Z,6.90
2023-04-02T14:57:06.246Z,5.90
2023-04-02T14:59:44.044Z,5.50
2023-04-02T15:02:35.662Z,5.50
2023-04-02T15:05:12.595Z,6.60
2023-04-02T15:07:45.269Z,5.90
2023-04-02T15:10:31.261Z,7.00
2023-04-02T15:13:00.742Z,8.20
2023-04-02T15:15:47.710Z,8.00
2023-04-02T15:18:17.464Z,7.90
2023-04-02T15:21:18.449Z,8.90
2023-04-02T15:24:04.655Z,8.90
2023-04-02T15:27:23.950Z,8.80
2023-04-02T15:30:52.014Z,9.20
2023-04-02T15:33:34.112Z,10.00
2023-04-02T15:36:21.764Z,9.70
2023-04-02T15:39:28.750Z,9.40
2023-04-02T15:42:24.410Z,10.20
2023-04-02T15:45:05.642Z,9.50
2023-04-02T15:47:39.420Z,8.90
2023-04-02T15:50:38.380Z,9.10
2023-04-02T15:53:07.275Z,8.80
2023-04-02T15:55:46.689Z,8.80
2023-04-02T15:58:22.864Z,8.70
2023-04-02T16:01:20.086Z,10.20
2023-04-02T16:03:56.498Z,9.70
2023-04-02T16:06:38.292Z,9.20
2023-04-02T16:09:23.354Z,10.90
2023-04-02T16:11:55.829Z,11.90
2023-04-02T16:14:27.591Z,12.00
2023-04-02T16:17:05.800Z,12.70
2023-04-02T16:19:42.332Z,11.30
2023-04-02T16:22:27.159Z,12.80
2023-04-02T16:25:06.689Z,10.70
2023-04-02T16:27:40.510Z,10.20
2023-04-02T16:30:30.188Z,9.50
2023-04-02T16:33:18.320Z,9.80
2023-04-02T16:36:18.063Z,9.00
2023-04-02T16:38:58.100Z,9.90
2023-04-02T16:44:29.269Z,8.60
2023-04-02T16:47:14.041Z,9.40
2023-04-02T16:50:25.221Z,9.80
2023-04-02T16:53:06.096Z,10.70
2023-04-02T16:56:08.702Z,10.20
2023-04-02T16:59:15.051Z,10.90
2023-04-02T17:01:51.574Z,11.50
2023-04-02T17:04:32.203Z,13.80
2023-04-02T17:07:22.596Z,11.20
2023-04-02T17:10:03.024Z,13.60
2023-04-02T17:12:46.389Z,16.90
2023-04-02T17:15:29.105Z,16.20
2023-04-02T17:18:21.769Z,12.70
2023-04-02T17:20:50.357Z,14.70
2023-04-02T17:23:19.638Z,14.10
2023-04-02T17:25:57.859Z,15.60
2023-04-02T17:28:36.947Z,14.20
2023-04-02T17:31:13.299Z,13.40
2023-04-02T17:33:41.860Z,14.20
2023-04-02T17:36:35.440Z,14.10
2023-04-02T17:39:03.805Z,13.60
2023-04-02T17:41:55.737Z,14.30
2023-04-02T17:44:39.889Z,14.90
2023-04-02T17:47:24.096Z,15.90
2023-04-02T17:49:55.909Z,14.60
2023-04-02T17:53:07.414Z,14.80
2023-04-02T17:55:42.745Z,18.30
2023-04-02T17:58:42.871Z,20.30
2023-04-02T18:01:20.951Z,20.40
2023-04-02T18:04:11.183Z,17.90
2023-04-02T18:06:49.082Z,18.30
2023-04-02T18:09:32.737Z,18.70
2023-04-02T18:12:10.736Z,21.10
2023-04-02T18:14:49.873Z,20.50
2023-04-02T18:17:55.388Z,19.40
2023-04-02T18:20:46.018Z,20.90
2023-04-02T18:23:37.952Z,22.00
2023-04-02T18:26:34.400Z,22.90
2023-04-02T18:29:27.976Z,22.20
2023-04-02T18:32:18.260Z,23.10
2023-04-02T18:35:01.318Z,24.20
2023-04-02T18:37:39.918Z,25.70
2023-04-02T18:40:22.440Z,28.90
2023-04-02T18:43:21.943Z,26.60
2023-04-02T18:46:22.627Z,28.80
2023-04-02T18:49:03.145Z,28.30
2023-04-02T18:51:34.505Z,29.10
2023-04-02T18:54:13.734Z,25.30
2023-04-02T18:56:42.539Z,23.80
2023-04-02T18:59:20.013Z,25.00
2023-04-02T19:01:50.347Z,26.60
2023-04-02T19:04:22.825Z,23.90
2023-04-02T19:06:55.100Z,18.30
2023-04-02T19:09:31.077Z,16.90
2023-04-02T19:11:59.434Z,15.00
2023-04-02T19:14:30.273Z,13.70
2023-04-02T19:17:04.506Z,10.50
2023-04-02T19:19:48.237Z,10.90
2023-04-02T19:23:32.503Z,9.80
2023-04-02T19:26:07.505Z,10.70
2023-04-02T19:29:10.630Z,10.70
2023-04-02T19:31:48.322Z,11.40
2023-04-02T19:34:33.323Z,10.40
2023-04-02T19:37:06.716Z,10.70
2023-04-02T19:39:47.074Z,10.80
2023-04-02T19:42:32.443Z,11.90
2023-04-02T19:45:01.348Z,12.20
2023-04-02T19:47:32.724Z,11.30
2023-04-02T19:50:01.176Z,12.40
2023-04-02T19:52:29.857Z,13.30
2023-04-02T19:54:58.495Z,11.30
2023-04-02T19:57:28.706Z,12.00
2023-04-02T19:59:57.152Z,12.60
2023-04-02T20:02:25.977Z,13.30
2023-04-02T20:04:54.840Z,9.50
2023-04-02T20:07:23.321Z,11.90
2023-04-02T20:09:51.907Z,11.60
2023-04-02T20:12:24.077Z,11.50
2023-04-02T20:14:53.176Z,10.10
2023-04-02T20:17:21.868Z,9.70
2023-04-02T20:19:50.249Z,11.20
2023-04-02T20:22:19.970Z,10.90
2023-04-02T20:24:48.500Z,10.30
2023-04-02T20:27:23.485Z,10.90
2023-04-02T20:29:51.866Z,11.00
2023-04-02T20:32:21.976Z,11.90
2023-04-02T20:34:50.471Z,9.80
2023-04-02T20:37:19.880Z,7.90
2023-04-02T20:39:48.275Z,9.30
2023-04-02T20:42:16.953Z,8.90
2023-04-02T20:44:47.376Z,8.00
2023-04-02T20:47:16.886Z,8.30
2023-04-02T20:49:45.372Z,8.70
2023-04-02T20:52:14.058Z,7.40
2023-04-02T20:54:42.642Z,7.30
2023-04-02T20:58:08.883Z,6.80
2023-04-02T21:00:37.661Z,6.80
2023-04-02T21:03:06.692Z,5.50
2023-04-02T21:05:42.488Z,6.00
2023-04-02T21:08:11.315Z,6.10
2023-04-02T21:10:40.105Z,6.40
2023-04-02T21:13:08.900Z,5.20
2023-04-02T21:15:42.996Z,5.60
2023-04-02T21:18:12.416Z,5.70
2023-04-02T21:20:41.312Z,6.40
2023-04-02T21:23:09.687Z,5.90
2023-04-02T21:25:38.736Z,6.30
2023-04-02T21:28:07.372Z,6.60
2023-04-02T21:30:36.259Z,7.00
2023-04-02T21:33:06.517Z,6.40
2023-04-02T21:35:35.797Z,6.60
2023-04-02T21:38:04.623Z,5.50
2023-04-02T21:40:33.054Z,6.90
2023-04-02T21:43:01.642Z,6.80
2023-04-02T21:45:31.560Z,7.30
2023-04-02T21:48:00.137Z,7.70
2023-04-02T21:50:28.958Z,7.70
2023-04-02T21:52:57.823Z,7.70
2023-04-02T21:57:56.134Z,8.40
2023-04-02T22:03:03.795Z,7.50
2023-04-02T22:05:32.328Z,8.10
2023-04-02T22:08:01.017Z,8.10
2023-04-02T22:10:31.233Z,8.60
2023-04-02T22:13:00.541Z,7.80
2023-04-02T22:15:32.213Z,7.90
2023-04-02T22:18:06.756Z,8.30
2023-04-02T22:20:38.507Z,7.90
2023-04-02T22:23:07.169Z,8.10
2023-04-02T22:25:36.162Z,6.90
2023-04-02T22:28:04.749Z,8.40
2023-04-02T22:30:35.120Z,8.60
2023-04-02T22:33:07.271Z,7.80
2023-04-02T22:35:36.166Z,7.60
2023-04-02T22:38:05.234Z,8.60
2023-04-02T22:40:35.945Z,8.40
2023-04-02T22:43:04.453Z,9.10
2023-04-02T22:45:33.446Z,8.30
2023-04-02T22:48:02.154Z,8.20
2023-04-02T22:50:31.026Z,8.20
2023-04-02T22:53:00.128Z,8.90
2023-04-02T22:55:28.709Z,9.10
2023-04-02T22:57:57.627Z,9.70
2023-04-02T23:00:26.289Z,9.50
2023-04-02T23:02:54.844Z,10.30
2023-04-02T23:05:24.687Z,7.90
2023-04-02T23:07:53.688Z,9.90
2023-04-02T23:10:22.129Z,9.50
2023-04-02T23:12:53.103Z,10.20
2023-04-02T23:15:21.491Z,10.00
2023-04-02T23:17:52.398Z,10.20
2023-04-02T23:20:22.762Z,9.70
2023-04-02T23:25:19.936Z,9.50
2023-04-02T23:27:49.237Z,10.10
2023-04-02T23:30:19.368Z,10.10
2023-04-02T23:32:47.886Z,9.40
2023-04-02T23:35:16.841Z,8.70
2023-04-02T23:37:45.219Z,9.90
2023-04-02T23:40:13.708Z,9.10
2023-04-02T23:42:42.388Z,9.20
2023-04-02T23:45:11.383Z,8.90
2023-04-02T23:47:40.793Z,8.50
2023-04-02T23:50:15.826Z,9.10
2023-04-02T23:52:44.206Z,9.30
2023-04-02T23:55:13.511Z,10.10
2023-04-02T23:57:41.888Z,8.90
